sensor_id;sensor_type;location;lat;lon;timestamp;pressure;altitude;pressure_sealevel;temperature;humidity
74163;BME280;62515;52.758;5.076;2023-03-14T00:01:16;98744.03;;;9.45;100.00
74163;BME280;62515;52.758;5.076;2023-03-14T00:03:44;98753.13;;;9.43;100.00
74163;BME280;62515;52.758;5.076;2023-03-14T00:06:12;98749.28;;;9.37;100.00
74163;BME280;62515;52.758;5.076;2023-03-14T00:08:40;98746.47;;;9.21;100.00
74163;BME280;62515;52.758;5.076;2023-03-14T00:11:08;98746.47;;;9.21;100.00
74163;BME280;62515;52.758;5.076;2023-03-14T00:13:36;98749.31;;;9.20;100.00
74163;BME280;62515;52.758;5.076;2023-03-14T00:16:04;98746.69;;;9.28;100.00
74163;BME280;62515;52.758;5.076;2023-03-14T00:18:33;98745.72;;;9.29;100.00
74163;BME280;62515;52.758;5.076;2023-03-14T00:21:01;98741.09;;;9.31;100.00
74163;BME280;62515;52.758;5.076;2023-03-14T00:23:28;98744.72;;;9.30;100.00
74163;BME280;62515;52.758;5.076;2023-03-14T00:25:58;98739.13;;;9.33;100.00
74163;BME280;62515;52.758;5.076;2023-03-14T00:28:25;98734.94;;;9.30;100.00
74163;BME280;62515;52.758;5.076;2023-03-14T00:30:53;98733.06;;;9.23;100.00
74163;BME280;62515;52.758;5.076;2023-03-14T00:33:21;98740.63;;;9.18;100.00
74163;BME280;62515;52.758;5.076;2023-03-14T00:35:53;98726.69;;;9.16;100.00
74163;BME280;62515;52.758;5.076;2023-03-14T00:38:20;98740.72;;;9.08;100.00
74163;BME280;62515;52.758;5.076;2023-03-14T00:40:46;98742.69;;;9.06;100.00
74163;BME280;62515;52.758;5.076;2023-03-14T00:43:13;98748.84;;;9.07;100.00
74163;BME280;62515;52.758;5.076;2023-03-14T00:45:40;98739.56;;;9.11;100.00
74163;BME280;62515;52.758;5.076;2023-03-14T00:48:08;98746.78;;;9.18;100.00
74163;BME280;62515;52.758;5.076;2023-03-14T00:50:35;98737.00;;;9.19;100.00
74163;BME280;62515;52.758;5.076;2023-03-14T00:53:02;98744.81;;;9.20;100.00
74163;BME280;62515;52.758;5.076;2023-03-14T00:55:29;98737.69;;;9.21;100.00
74163;BME280;62515;52.758;5.076;2023-03-14T00:57:56;98736.69;;;9.22;100.00
74163;BME280;62515;52.758;5.076;2023-03-14T01:00:22;98730.03;;;9.18;100.00
74163;BME280;62515;52.758;5.076;2023-03-14T01:02:49;98724.72;;;9.18;100.00
74163;BME280;62515;52.758;5.076;2023-03-14T01:05:18;98718.44;;;9.19;100.00
74163;BME280;62515;52.758;5.076;2023-03-14T01:07:45;98716.38;;;9.13;100.00
74163;BME280;62515;52.758;5.076;2023-03-14T01:10:11;98721.59;;;9.05;100.00
74163;BME280;62515;52.758;5.076;2023-03-14T01:12:38;98722.75;;;9.02;100.00
74163;BME280;62515;52.758;5.076;2023-03-14T01:15:06;98740.19;;;9.05;100.00
74163;BME280;62515;52.758;5.076;2023-03-14T01:17:33;98743.38;;;9.08;100.00
74163;BME280;62515;52.758;5.076;2023-03-14T01:20:00;98747.41;;;9.12;100.00
74163;BME280;62515;52.758;5.076;2023-03-14T01:22:29;98751.19;;;9.10;100.00
74163;BME280;62515;52.758;5.076;2023-03-14T01:24:56;98751.84;;;9.12;100.00
74163;BME280;62515;52.758;5.076;2023-03-14T01:27:23;98750.19;;;9.11;100.00
74163;BME280;62515;52.758;5.076;2023-03-14T01:29:50;98744.06;;;9.10;100.00
74163;BME280;62515;52.758;5.076;2023-03-14T01:32:17;98748.13;;;9.05;100.00
74163;BME280;62515;52.758;5.076;2023-03-14T01:34:44;98736.84;;;9.03;100.00
74163;BME280;62515;52.758;5.076;2023-03-14T01:37:11;98739.88;;;9.08;100.00
74163;BME280;62515;52.758;5.076;2023-03-14T01:39:40;98733.59;;;9.09;100.00
74163;BME280;62515;52.758;5.076;2023-03-14T01:42:07;98730.09;;;9.08;100.00
74163;BME280;62515;52.758;5.076;2023-03-14T01:44:48;98724.34;;;9.13;100.00
74163;BME280;62515;52.758;5.076;2023-03-14T01:47:15;98731.47;;;9.12;100.00
74163;BME280;62515;52.758;5.076;2023-03-14T01:49:43;98718.03;;;9.14;100.00
74163;BME280;62515;52.758;5.076;2023-03-14T01:52:13;98721.69;;;9.13;100.00
74163;BME280;62515;52.758;5.076;2023-03-14T01:54:48;98726.84;;;9.14;100.00
74163;BME280;62515;52.758;5.076;2023-03-14T01:57:20;98733.97;;;9.14;100.00
74163;BME280;62515;52.758;5.076;2023-03-14T01:59:53;98715.84;;;9.09;100.00
74163;BME280;62515;52.758;5.076;2023-03-14T02:02:22;98711.38;;;9.10;100.00
74163;BME280;62515;52.758;5.076;2023-03-14T02:04:51;98724.66;;;9.10;100.00
74163;BME280;62515;52.758;5.076;2023-03-14T02:07:24;98730.09;;;9.08;100.00
74163;BME280;62515;52.758;5.076;2023-03-14T02:10:09;98720.31;;;9.09;100.00
74163;BME280;62515;52.758;5.076;2023-03-14T02:12:36;98724.25;;;9.05;100.00
74163;BME280;62515;52.758;5.076;2023-03-14T02:15:21;98715.63;;;9.03;100.00
74163;BME280;62515;52.758;5.076;2023-03-14T02:17:58;98713.13;;;9.01;100.00
74163;BME280;62515;52.758;5.076;2023-03-14T02:20:38;98709.63;;;9.01;100.00
74163;BME280;62515;52.758;5.076;2023-03-14T02:23:09;98714.56;;;8.96;100.00
74163;BME280;62515;52.758;5.076;2023-03-14T02:25:44;98720.78;;;8.86;100.00
74163;BME280;62515;52.758;5.076;2023-03-14T02:28:14;98726.38;;;8.83;100.00
74163;BME280;62515;52.758;5.076;2023-03-14T02:30:42;98726.28;;;8.75;100.00
74163;BME280;62515;52.758;5.076;2023-03-14T02:33:12;98712.78;;;8.69;100.00
74163;BME280;62515;52.758;5.076;2023-03-14T02:35:44;98712.25;;;8.65;100.00
74163;BME280;62515;52.758;5.076;2023-03-14T02:38:17;98707.78;;;8.66;100.00
74163;BME280;62515;52.758;5.076;2023-03-14T02:40:49;98693.03;;;8.63;100.00
74163;BME280;62515;52.758;5.076;2023-03-14T02:43:18;98698.75;;;8.59;100.00
74163;BME280;62515;52.758;5.076;2023-03-14T02:45:52;98697.41;;;8.55;100.00
74163;BME280;62515;52.758;5.076;2023-03-14T02:48:24;98699.47;;;8.61;100.00
74163;BME280;62515;52.758;5.076;2023-03-14T02:50:54;98689.69;;;8.61;100.00
74163;BME280;62515;52.758;5.076;2023-03-14T02:53:26;98694.28;;;8.59;100.00
74163;BME280;62515;52.758;5.076;2023-03-14T02:55:57;98692.34;;;8.61;100.00
74163;BME280;62515;52.758;5.076;2023-03-14T02:58:28;98695.00;;;8.61;100.00
74163;BME280;62515;52.758;5.076;2023-03-14T03:01:03;98688.84;;;8.61;100.00
74163;BME280;62515;52.758;5.076;2023-03-14T03:03:31;98682.72;;;8.60;100.00
74163;BME280;62515;52.758;5.076;2023-03-14T03:06:12;98675.59;;;8.61;100.00
74163;BME280;62515;52.758;5.076;2023-03-14T03:08:39;98660.38;;;8.63;100.00
74163;BME280;62515;52.758;5.076;2023-03-14T03:11:06;98669.28;;;8.62;100.00
74163;BME280;62515;52.758;5.076;2023-03-14T03:13:36;98664.22;;;8.68;100.00
74163;BME280;62515;52.758;5.076;2023-03-14T03:16:05;98657.28;;;8.67;100.00
74163;BME280;62515;52.758;5.076;2023-03-14T03:18:33;98670.59;;;8.75;100.00
74163;BME280;62515;52.758;5.076;2023-03-14T03:21:01;98672.28;;;8.76;100.00
74163;BME280;62515;52.758;5.076;2023-03-14T03:23:28;98664.69;;;8.81;100.00
74163;BME280;62515;52.758;5.076;2023-03-14T03:25:57;98670.16;;;8.80;100.00
74163;BME280;62515;52.758;5.076;2023-03-14T03:28:24;98666.53;;;8.81;100.00
74163;BME280;62515;52.758;5.076;2023-03-14T03:30:54;98673.03;;;8.86;100.00
74163;BME280;62515;52.758;5.076;2023-03-14T03:33:21;98674.72;;;8.87;100.00
74163;BME280;62515;52.758;5.076;2023-03-14T03:35:50;98678.16;;;8.88;100.00
74163;BME280;62515;52.758;5.076;2023-03-14T03:38:23;98673.66;;;8.80;100.00
74163;BME280;62515;52.758;5.076;2023-03-14T03:40:52;98673.94;;;8.77;100.00
74163;BME280;62515;52.758;5.076;2023-03-14T03:43:33;98669.22;;;8.71;100.00
74163;BME280;62515;52.758;5.076;2023-03-14T03:46:05;98663.91;;;8.71;100.00
74163;BME280;62515;52.758;5.076;2023-03-14T03:48:33;98665.38;;;8.66;100.00
74163;BME280;62515;52.758;5.076;2023-03-14T03:51:03;98669.81;;;8.65;100.00
74163;BME280;62515;52.758;5.076;2023-03-14T03:53:32;98659.22;;;8.65;100.00
74163;BME280;62515;52.758;5.076;2023-03-14T03:56:17;98668.72;;;8.68;100.00
74163;BME280;62515;52.758;5.076;2023-03-14T03:58:45;98666.50;;;8.63;100.00
74163;BME280;62515;52.758;5.076;2023-03-14T04:01:14;98672.13;;;8.60;100.00
74163;BME280;62515;52.758;5.076;2023-03-14T04:03:43;98690.13;;;8.57;100.00
74163;BME280;62515;52.758;5.076;2023-03-14T04:06:11;98685.25;;;8.52;100.00
74163;BME280;62515;52.758;5.076;2023-03-14T04:08:42;98681.41;;;8.47;100.00
74163;BME280;62515;52.758;5.076;2023-03-14T04:11:16;98679.59;;;8.47;100.00
74163;BME280;62515;52.758;5.076;2023-03-14T04:13:52;98671.63;;;8.47;100.00
74163;BME280;62515;52.758;5.076;2023-03-14T04:16:23;98681.56;;;8.45;100.00
74163;BME280;62515;52.758;5.076;2023-03-14T04:18:53;98685.19;;;8.44;100.00
74163;BME280;62515;52.758;5.076;2023-03-14T04:21:22;98677.00;;;8.37;100.00
74163;BME280;62515;52.758;5.076;2023-03-14T04:23:53;98688.69;;;8.45;100.00
74163;BME280;62515;52.758;5.076;2023-03-14T04:26:20;98678.06;;;8.45;100.00
74163;BME280;62515;52.758;5.076;2023-03-14T04:28:47;98683.22;;;8.46;100.00
74163;BME280;62515;52.758;5.076;2023-03-14T04:31:17;98682.25;;;8.47;100.00
74163;BME280;62515;52.758;5.076;2023-03-14T04:33:47;98690.72;;;8.51;100.00
74163;BME280;62515;52.758;5.076;2023-03-14T04:36:19;98706.63;;;8.51;100.00
74163;BME280;62515;52.758;5.076;2023-03-14T04:38:47;98696.88;;;8.51;100.00
74163;BME280;62515;52.758;5.076;2023-03-14T04:41:17;98695.06;;;8.52;100.00
74163;BME280;62515;52.758;5.076;2023-03-14T04:43:44;98693.22;;;8.52;100.00
74163;BME280;62515;52.758;5.076;2023-03-14T04:46:12;98679.81;;;8.54;100.00
74163;BME280;62515;52.758;5.076;2023-03-14T04:48:39;98686.41;;;8.50;100.00
74163;BME280;62515;52.758;5.076;2023-03-14T04:51:08;98697.53;;;8.53;100.00
74163;BME280;62515;52.758;5.076;2023-03-14T04:53:35;98692.25;;;8.53;100.00
74163;BME280;62515;52.758;5.076;2023-03-14T04:56:07;98688.38;;;8.48;100.00
74163;BME280;62515;52.758;5.076;2023-03-14T04:58:38;98693.50;;;8.49;100.00
74163;BME280;62515;52.758;5.076;2023-03-14T05:01:07;98697.00;;;8.50;100.00
74163;BME280;62515;52.758;5.076;2023-03-14T05:04:00;98683.75;;;8.50;100.00
74163;BME280;62515;52.758;5.076;2023-03-14T05:06:49;98682.63;;;8.52;100.00
74163;BME280;62515;52.758;5.076;2023-03-14T05:09:26;98694.53;;;8.48;100.00
74163;BME280;62515;52.758;5.076;2023-03-14T05:12:12;98693.69;;;8.48;100.00
74163;BME280;62515;52.758;5.076;2023-03-14T05:15:07;98714.47;;;8.43;100.00
74163;BME280;62515;52.758;5.076;2023-03-14T05:17:52;98706.59;;;8.33;100.00
74163;BME280;62515;52.758;5.076;2023-03-14T05:20:50;98740.69;;;8.09;100.00
74163;BME280;62515;52.758;5.076;2023-03-14T05:23:28;98753.06;;;7.71;100.00
74163;BME280;62515;52.758;5.076;2023-03-14T05:26:23;98762.44;;;7.47;100.00
74163;BME280;62515;52.758;5.076;2023-03-14T05:28:58;98770.38;;;7.18;100.00
74163;BME280;62515;52.758;5.076;2023-03-14T05:31:43;98771.75;;;7.03;100.00
74163;BME280;62515;52.758;5.076;2023-03-14T05:34:30;98782.88;;;6.97;100.00
74163;BME280;62515;52.758;5.076;2023-03-14T05:37:27;98785.97;;;6.92;100.00
74163;BME280;62515;52.758;5.076;2023-03-14T05:40:10;98800.41;;;6.88;100.00
74163;BME280;62515;52.758;5.076;2023-03-14T05:42:45;98802.34;;;6.86;100.00
74163;BME280;62515;52.758;5.076;2023-03-14T05:45:32;98822.50;;;6.77;100.00
74163;BME280;62515;52.758;5.076;2023-03-14T05:48:20;98824.69;;;6.63;100.00
74163;BME280;62515;52.758;5.076;2023-03-14T05:51:19;98825.63;;;6.52;100.00
74163;BME280;62515;52.758;5.076;2023-03-14T05:54:04;98836.72;;;6.46;100.00
74163;BME280;62515;52.758;5.076;2023-03-14T05:56:53;98841.75;;;6.49;100.00
74163;BME280;62515;52.758;5.076;2023-03-14T05:59:37;98855.91;;;6.48;100.00
74163;BME280;62515;52.758;5.076;2023-03-14T06:02:27;98852.84;;;6.43;100.00
74163;BME280;62515;52.758;5.076;2023-03-14T06:05:02;98872.63;;;6.49;100.00
74163;BME280;62515;52.758;5.076;2023-03-14T06:07:29;98876.63;;;6.43;100.00
74163;BME280;62515;52.758;5.076;2023-03-14T06:09:56;98879.28;;;6.43;100.00
74163;BME280;62515;52.758;5.076;2023-03-14T06:12:25;98888.69;;;6.36;100.00
74163;BME280;62515;52.758;5.076;2023-03-14T06:14:55;98901.38;;;6.21;100.00
74163;BME280;62515;52.758;5.076;2023-03-14T06:17:22;98915.44;;;6.01;100.00
74163;BME280;62515;52.758;5.076;2023-03-14T06:19:59;98925.44;;;5.87;100.00
74163;BME280;62515;52.758;5.076;2023-03-14T06:22:28;98933.75;;;5.71;100.00
74163;BME280;62515;52.758;5.076;2023-03-14T06:24:55;98952.25;;;5.60;100.00
74163;BME280;62515;52.758;5.076;2023-03-14T06:30:29;98959.88;;;5.42;100.00
74163;BME280;62515;52.758;5.076;2023-03-14T06:32:56;98962.28;;;5.34;100.00
74163;BME280;62515;52.758;5.076;2023-03-14T06:35:24;98981.00;;;5.20;100.00
74163;BME280;62515;52.758;5.076;2023-03-14T06:37:51;98990.84;;;5.07;100.00
74163;BME280;62515;52.758;5.076;2023-03-14T06:40:18;99000.06;;;5.01;100.00
74163;BME280;62515;52.758;5.076;2023-03-14T06:42:59;99025.94;;;4.96;100.00
74163;BME280;62515;52.758;5.076;2023-03-14T06:45:30;99031.09;;;4.98;100.00
74163;BME280;62515;52.758;5.076;2023-03-14T06:47:59;99053.63;;;4.91;100.00
74163;BME280;62515;52.758;5.076;2023-03-14T06:50:37;99066.06;;;4.89;100.00
74163;BME280;62515;52.758;5.076;2023-03-14T06:53:04;99065.59;;;4.84;100.00
74163;BME280;62515;52.758;5.076;2023-03-14T06:55:33;99064.84;;;4.70;100.00
74163;BME280;62515;52.758;5.076;2023-03-14T06:58:01;99084.75;;;4.74;100.00
74163;BME280;62515;52.758;5.076;2023-03-14T07:00:30;99097.69;;;4.78;100.00
74163;BME280;62515;52.758;5.076;2023-03-14T07:02:57;99111.09;;;4.74;100.00
74163;BME280;62515;52.758;5.076;2023-03-14T07:05:31;99103.91;;;4.77;100.00
74163;BME280;62515;52.758;5.076;2023-03-14T07:07:58;99125.69;;;4.79;100.00
74163;BME280;62515;52.758;5.076;2023-03-14T07:10:25;99133.38;;;4.82;100.00
74163;BME280;62515;52.758;5.076;2023-03-14T07:12:52;99140.56;;;4.80;100.00
74163;BME280;62515;52.758;5.076;2023-03-14T07:15:21;99158.78;;;4.59;100.00
74163;BME280;62515;52.758;5.076;2023-03-14T07:17:54;99175.50;;;4.47;100.00
74163;BME280;62515;52.758;5.076;2023-03-14T07:20:22;99169.16;;;4.49;100.00
74163;BME280;62515;52.758;5.076;2023-03-14T07:22:50;99186.56;;;4.52;100.00
74163;BME280;62515;52.758;5.076;2023-03-14T07:25:21;99186.09;;;4.58;100.00
74163;BME280;62515;52.758;5.076;2023-03-14T07:27:48;99202.78;;;4.69;100.00
74163;BME280;62515;52.758;5.076;2023-03-14T07:30:16;99207.50;;;4.77;100.00
74163;BME280;62515;52.758;5.076;2023-03-14T07:32:43;99219.16;;;4.86;100.00
74163;BME280;62515;52.758;5.076;2023-03-14T07:35:14;99219.44;;;4.94;100.00
74163;BME280;62515;52.758;5.076;2023-03-14T07:37:41;99235.97;;;4.96;100.00
74163;BME280;62515;52.758;5.076;2023-03-14T07:40:11;99247.97;;;5.00;100.00
74163;BME280;62515;52.758;5.076;2023-03-14T07:42:38;99253.13;;;5.01;100.00
74163;BME280;62515;52.758;5.076;2023-03-14T07:45:14;99282.97;;;5.02;100.00
74163;BME280;62515;52.758;5.076;2023-03-14T07:47:41;99268.38;;;5.09;100.00
74163;BME280;62515;52.758;5.076;2023-03-14T07:50:09;99276.69;;;5.15;100.00
74163;BME280;62515;52.758;5.076;2023-03-14T07:52:38;99290.50;;;5.19;100.00
74163;BME280;62515;52.758;5.076;2023-03-14T07:55:05;99288.06;;;5.16;100.00
74163;BME280;62515;52.758;5.076;2023-03-14T07:57:32;99295.75;;;5.19;100.00
74163;BME280;62515;52.758;5.076;2023-03-14T07:59:59;99309.09;;;5.28;100.00
74163;BME280;62515;52.758;5.076;2023-03-14T08:02:26;99315.00;;;5.32;100.00
74163;BME280;62515;52.758;5.076;2023-03-14T08:04:52;99329.41;;;5.39;100.00
74163;BME280;62515;52.758;5.076;2023-03-14T08:07:19;99331.81;;;5.42;100.00
74163;BME280;62515;52.758;5.076;2023-03-14T08:09:47;99345.63;;;5.46;100.00
74163;BME280;62515;52.758;5.076;2023-03-14T08:12:14;99343.63;;;5.49;100.00
74163;BME280;62515;52.758;5.076;2023-03-14T08:14:41;99351.28;;;5.52;100.00
74163;BME280;62515;52.758;5.076;2023-03-14T08:17:08;99366.75;;;5.57;100.00
74163;BME280;62515;52.758;5.076;2023-03-14T08:19:34;99378.06;;;5.59;100.00
74163;BME280;62515;52.758;5.076;2023-03-14T08:22:02;99388.50;;;5.60;100.00
74163;BME280;62515;52.758;5.076;2023-03-14T08:24:30;99394.28;;;5.65;100.00
74163;BME280;62515;52.758;5.076;2023-03-14T08:26:58;99391.53;;;5.67;100.00
74163;BME280;62515;52.758;5.076;2023-03-14T08:29:26;99410.28;;;5.75;100.00
74163;BME280;62515;52.758;5.076;2023-03-14T08:31:53;99413.91;;;5.85;100.00
74163;BME280;62515;52.758;5.076;2023-03-14T08:34:20;99422.13;;;5.93;100.00
74163;BME280;62515;52.758;5.076;2023-03-14T08:36:47;99439.28;;;5.99;100.00
74163;BME280;62515;52.758;5.076;2023-03-14T08:39:14;99447.97;;;6.01;100.00
74163;BME280;62515;52.758;5.076;2023-03-14T08:41:42;99462.72;;;6.03;100.00
74163;BME280;62515;52.758;5.076;2023-03-14T08:44:10;99474.69;;;5.96;100.00
74163;BME280;62515;52.758;5.076;2023-03-14T08:46:37;99480.84;;;5.60;100.00
74163;BME280;62515;52.758;5.076;2023-03-14T08:49:04;99503.97;;;5.33;100.00
74163;BME280;62515;52.758;5.076;2023-03-14T08:51:32;99518.13;;;4.94;100.00
74163;BME280;62515;52.758;5.076;2023-03-14T08:53:59;99528.38;;;4.86;100.00
74163;BME280;62515;52.758;5.076;2023-03-14T08:56:26;99535.34;;;4.74;100.00
74163;BME280;62515;52.758;5.076;2023-03-14T08:58:53;99545.78;;;4.63;100.00
74163;BME280;62515;52.758;5.076;2023-03-14T09:01:33;99559.47;;;4.68;100.00
74163;BME280;62515;52.758;5.076;2023-03-14T09:04:04;99569.19;;;4.93;100.00
74163;BME280;62515;52.758;5.076;2023-03-14T09:06:31;99551.25;;;5.11;100.00
74163;BME280;62515;52.758;5.076;2023-03-14T09:08:58;99574.56;;;5.30;100.00
74163;BME280;62515;52.758;5.076;2023-03-14T09:11:24;99578.84;;;5.43;100.00
74163;BME280;62515;52.758;5.076;2023-03-14T09:13:51;99601.75;;;5.55;100.00
74163;BME280;62515;52.758;5.076;2023-03-14T09:16:18;99602.25;;;5.60;100.00
74163;BME280;62515;52.758;5.076;2023-03-14T09:18:50;99621.66;;;5.72;100.00
74163;BME280;62515;52.758;5.076;2023-03-14T09:21:30;99627.75;;;5.72;100.00
74163;BME280;62515;52.758;5.076;2023-03-14T09:24:23;99643.59;;;5.72;100.00
74163;BME280;62515;52.758;5.076;2023-03-14T09:26:51;99646.66;;;5.79;100.00
74163;BME280;62515;52.758;5.076;2023-03-14T09:29:18;99664.72;;;5.85;100.00
74163;BME280;62515;52.758;5.076;2023-03-14T09:31:45;99668.97;;;5.88;100.00
74163;BME280;62515;52.758;5.076;2023-03-14T09:34:13;99684.25;;;5.82;100.00
74163;BME280;62515;52.758;5.076;2023-03-14T09:36:40;99684.06;;;5.86;100.00
74163;BME280;62515;52.758;5.076;2023-03-14T09:39:07;99697.03;;;5.89;100.00
74163;BME280;62515;52.758;5.076;2023-03-14T09:41:35;99699.69;;;6.01;100.00
74163;BME280;62515;52.758;5.076;2023-03-14T09:44:05;99720.56;;;6.17;100.00
74163;BME280;62515;52.758;5.076;2023-03-14T09:46:38;99723.31;;;6.15;100.00
74163;BME280;62515;52.758;5.076;2023-03-14T09:49:10;99736.06;;;6.21;100.00
74163;BME280;62515;52.758;5.076;2023-03-14T09:51:40;99734.44;;;6.08;100.00
74163;BME280;62515;52.758;5.076;2023-03-14T09:54:19;99744.94;;;6.33;100.00
74163;BME280;62515;52.758;5.076;2023-03-14T09:56:52;99747.78;;;6.66;100.00
74163;BME280;62515;52.758;5.076;2023-03-14T09:59:19;99749.47;;;6.67;100.00
74163;BME280;62515;52.758;5.076;2023-03-14T10:01:46;99752.28;;;7.01;100.00
74163;BME280;62515;52.758;5.076;2023-03-14T10:04:16;99769.94;;;6.53;100.00
74163;BME280;62515;52.758;5.076;2023-03-14T10:06:45;99782.00;;;7.04;100.00
74163;BME280;62515;52.758;5.076;2023-03-14T10:09:18;99780.19;;;7.05;100.00
74163;BME280;62515;52.758;5.076;2023-03-14T10:11:46;99791.22;;;7.57;100.00
74163;BME280;62515;52.758;5.076;2023-03-14T10:14:28;99800.53;;;7.39;100.00
74163;BME280;62515;52.758;5.076;2023-03-14T10:17:05;99815.47;;;7.40;100.00
74163;BME280;62515;52.758;5.076;2023-03-14T10:19:32;99828.13;;;7.48;100.00
74163;BME280;62515;52.758;5.076;2023-03-14T10:22:01;99827.50;;;7.79;100.00
74163;BME280;62515;52.758;5.076;2023-03-14T10:24:30;99833.13;;;7.74;100.00
74163;BME280;62515;52.758;5.076;2023-03-14T10:27:00;99854.72;;;7.46;100.00
74163;BME280;62515;52.758;5.076;2023-03-14T10:29:28;99852.56;;;7.97;100.00
74163;BME280;62515;52.758;5.076;2023-03-14T10:31:59;99866.66;;;7.86;100.00
74163;BME280;62515;52.758;5.076;2023-03-14T10:34:29;99866.66;;;7.86;100.00
74163;BME280;62515;52.758;5.076;2023-03-14T10:36:57;99867.91;;;8.05;100.00
74163;BME280;62515;52.758;5.076;2023-03-14T10:39:41;99880.69;;;8.22;100.00
74163;BME280;62515;52.758;5.076;2023-03-14T10:42:16;99893.28;;;8.86;100.00
74163;BME280;62515;52.758;5.076;2023-03-14T10:44:54;99914.59;;;7.95;100.00
74163;BME280;62515;52.758;5.076;2023-03-14T10:47:24;99930.91;;;6.81;100.00
74163;BME280;62515;52.758;5.076;2023-03-14T10:49:52;99939.59;;;6.96;100.00
74163;BME280;62515;52.758;5.076;2023-03-14T10:52:22;99944.41;;;7.38;100.00
74163;BME280;62515;52.758;5.076;2023-03-14T10:55:11;99939.09;;;8.44;100.00
74163;BME280;62515;52.758;5.076;2023-03-14T10:57:39;99959.19;;;8.35;100.00
74163;BME280;62515;52.758;5.076;2023-03-14T11:00:14;99960.78;;;7.79;100.00
74163;BME280;62515;52.758;5.076;2023-03-14T11:05:29;99977.88;;;8.10;100.00
74163;BME280;62515;52.758;5.076;2023-03-14T11:08:01;99990.25;;;7.99;100.00
74163;BME280;62515;52.758;5.076;2023-03-14T11:10:33;100002.50;;;7.52;100.00
74163;BME280;62515;52.758;5.076;2023-03-14T11:13:07;100007.53;;;7.44;100.00
74163;BME280;62515;52.758;5.076;2023-03-14T11:15:41;100005.78;;;7.56;100.00
74163;BME280;62515;52.758;5.076;2023-03-14T11:18:26;100016.19;;;7.82;100.00
74163;BME280;62515;52.758;5.076;2023-03-14T11:21:02;100046.56;;;7.53;100.00
74163;BME280;62515;52.758;5.076;2023-03-14T11:23:41;100033.91;;;7.33;100.00
74163;BME280;62515;52.758;5.076;2023-03-14T11:26:19;100043.97;;;7.64;100.00
74163;BME280;62515;52.758;5.076;2023-03-14T11:28:57;100061.44;;;7.79;100.00
74163;BME280;62515;52.758;5.076;2023-03-14T11:31:26;100058.66;;;8.05;100.00
74163;BME280;62515;52.758;5.076;2023-03-14T11:33:55;100075.69;;;8.13;100.00
74163;BME280;62515;52.758;5.076;2023-03-14T11:36:27;100074.91;;;8.24;100.00
74163;BME280;62515;52.758;5.076;2023-03-14T11:38:58;100060.66;;;8.37;100.00
74163;BME280;62515;52.758;5.076;2023-03-14T11:41:30;100099.31;;;8.29;100.00
74163;BME280;62515;52.758;5.076;2023-03-14T11:44:00;100119.13;;;8.00;100.00
74163;BME280;62515;52.758;5.076;2023-03-14T11:46:34;100131.28;;;8.26;100.00
74163;BME280;62515;52.758;5.076;2023-03-14T11:49:07;100109.41;;;7.75;100.00
74163;BME280;62515;52.758;5.076;2023-03-14T11:51:39;100119.22;;;7.36;100.00
74163;BME280;62515;52.758;5.076;2023-03-14T11:54:14;100122.66;;;7.75;100.00
74163;BME280;62515;52.758;5.076;2023-03-14T11:56:50;100128.56;;;8.51;100.00
74163;BME280;62515;52.758;5.076;2023-03-14T11:59:21;100147.63;;;8.32;100.00
74163;BME280;62515;52.758;5.076;2023-03-14T12:02:03;100141.66;;;9.11;100.00
74163;BME280;62515;52.758;5.076;2023-03-14T12:04:43;100153.63;;;8.71;100.00
74163;BME280;62515;52.758;5.076;2023-03-14T12:07:18;100169.47;;;8.23;100.00
74163;BME280;62515;52.758;5.076;2023-03-14T12:09:47;100164.47;;;7.95;100.00
74163;BME280;62515;52.758;5.076;2023-03-14T12:12:19;100176.16;;;7.67;100.00
74163;BME280;62515;52.758;5.076;2023-03-14T12:14:53;100182.97;;;7.59;100.00
74163;BME280;62515;52.758;5.076;2023-03-14T12:17:24;100188.13;;;7.85;100.00
74163;BME280;62515;52.758;5.076;2023-03-14T12:20:03;100185.13;;;7.90;100.00
74163;BME280;62515;52.758;5.076;2023-03-14T12:22:35;100183.72;;;8.10;100.00
74163;BME280;62515;52.758;5.076;2023-03-14T12:25:06;100185.63;;;8.08;100.00
74163;BME280;62515;52.758;5.076;2023-03-14T12:27:45;100191.53;;;7.37;100.00
74163;BME280;62515;52.758;5.076;2023-03-14T12:30:28;100210.59;;;7.93;100.00
74163;BME280;62515;52.758;5.076;2023-03-14T12:33:31;100212.38;;;7.29;100.00
74163;BME280;62515;52.758;5.076;2023-03-14T12:36:03;100217.16;;;7.36;100.00
74163;BME280;62515;52.758;5.076;2023-03-14T12:38:43;100221.28;;;7.28;100.00
74163;BME280;62515;52.758;5.076;2023-03-14T12:41:15;100213.88;;;7.20;100.00
74163;BME280;62515;52.758;5.076;2023-03-14T12:43:45;100216.78;;;7.03;100.00
74163;BME280;62515;52.758;5.076;2023-03-14T12:46:21;100242.13;;;6.80;100.00
74163;BME280;62515;52.758;5.076;2023-03-14T12:48:49;100235.03;;;6.81;100.00
74163;BME280;62515;52.758;5.076;2023-03-14T12:51:17;100242.97;;;6.81;100.00
74163;BME280;62515;52.758;5.076;2023-03-14T12:54:17;100261.41;;;6.82;100.00
74163;BME280;62515;52.758;5.076;2023-03-14T12:56:59;100260.81;;;6.77;100.00
74163;BME280;62515;52.758;5.076;2023-03-14T12:59:34;100273.19;;;6.77;100.00
74163;BME280;62515;52.758;5.076;2023-03-14T13:02:37;100279.50;;;6.62;100.00
74163;BME280;62515;52.758;5.076;2023-03-14T13:05:09;100282.66;;;6.67;100.00
74163;BME280;62515;52.758;5.076;2023-03-14T13:08:11;100290.94;;;6.48;100.00
74163;BME280;62515;52.758;5.076;2023-03-14T13:10:42;100291.03;;;6.47;100.00
74163;BME280;62515;52.758;5.076;2023-03-14T13:13:20;100298.53;;;6.67;100.00
74163;BME280;62515;52.758;5.076;2023-03-14T13:15:55;100314.31;;;6.68;100.00
74163;BME280;62515;52.758;5.076;2023-03-14T13:18:27;100310.72;;;6.96;100.00
74163;BME280;62515;52.758;5.076;2023-03-14T13:21:05;100281.25;;;6.75;100.00
74163;BME280;62515;52.758;5.076;2023-03-14T13:23:36;100319.00;;;6.77;100.00
74163;BME280;62515;52.758;5.076;2023-03-14T13:26:09;100316.75;;;6.71;100.00
74163;BME280;62515;52.758;5.076;2023-03-14T13:28:38;100328.56;;;7.07;100.00